sensor_id;sensor_type;location;lat;lon;timestamp;temperature;humidity
36214;DHT22;37652;50.400;30.628;2022-08-21T00:01:36;18.20;99.90
36214;DHT22;37652;50.400;30.628;2022-08-21T00:03:37;18.40;99.90
36214;DHT22;37652;50.400;30.628;2022-08-21T00:05:41;18.50;99.90
36214;DHT22;37652;50.400;30.628;2022-08-21T00:09:43;18.50;99.90
36214;DHT22;37652;50.400;30.628;2022-08-21T00:11:44;19.00;99.90
36214;DHT22;37652;50.400;30.628;2022-08-21T00:15:47;18.50;99.90
36214;DHT22;37652;50.400;30.628;2022-08-21T00:17:48;18.50;99.90
36214;DHT22;37652;50.400;30.628;2022-08-21T00:21:51;18.30;99.90
36214;DHT22;37652;50.400;30.628;2022-08-21T00:23:52;19.10;99.90
36214;DHT22;37652;50.400;30.628;2022-08-21T00:27:55;18.80;99.90
36214;DHT22;37652;50.400;30.628;2022-08-21T00:29:56;18.40;99.90
36214;DHT22;37652;50.400;30.628;2022-08-21T00:31:57;18.70;99.90
36214;DHT22;37652;50.400;30.628;2022-08-21T00:33:58;19.00;99.90
36214;DHT22;37652;50.400;30.628;2022-08-21T00:36:00;18.40;99.90
36214;DHT22;37652;50.400;30.628;2022-08-21T00:38:01;19.10;99.90
36214;DHT22;37652;50.400;30.628;2022-08-21T00:40:03;18.70;99.90
36214;DHT22;37652;50.400;30.628;2022-08-21T00:42:04;18.30;99.90
36214;DHT22;37652;50.400;30.628;2022-08-21T00:44:07;18.30;99.90
36214;DHT22;37652;50.400;30.628;2022-08-21T00:46:08;18.50;99.90
36214;DHT22;37652;50.400;30.628;2022-08-21T00:50:11;18.20;99.90
36214;DHT22;37652;50.400;30.628;2022-08-21T00:52:17;18.20;99.90
36214;DHT22;37652;50.400;30.628;2022-08-21T00:54:22;18.40;99.90
36214;DHT22;37652;50.400;30.628;2022-08-21T00:56:25;18.00;99.90
36214;DHT22;37652;50.400;30.628;2022-08-21T00:58:26;18.20;99.90
36214;DHT22;37652;50.400;30.628;2022-08-21T01:00:31;18.20;99.90
36214;DHT22;37652;50.400;30.628;2022-08-21T01:02:32;18.30;99.90
36214;DHT22;37652;50.400;30.628;2022-08-21T01:04:35;18.50;99.90
36214;DHT22;37652;50.400;30.628;2022-08-21T01:06:36;18.20;99.90
36214;DHT22;37652;50.400;30.628;2022-08-21T01:10:38;18.00;99.90
36214;DHT22;37652;50.400;30.628;2022-08-21T01:12:39;17.50;99.90
36214;DHT22;37652;50.400;30.628;2022-08-21T01:14:41;18.50;99.90
36214;DHT22;37652;50.400;30.628;2022-08-21T01:16:48;17.80;99.90
36214;DHT22;37652;50.400;30.628;2022-08-21T01:18:50;18.50;99.90
36214;DHT22;37652;50.400;30.628;2022-08-21T01:21:15;18.60;99.90
36214;DHT22;37652;50.400;30.628;2022-08-21T01:23:16;18.90;99.90
36214;DHT22;37652;50.400;30.628;2022-08-21T01:25:18;18.10;99.90
36214;DHT22;37652;50.400;30.628;2022-08-21T01:27:20;18.30;99.90
36214;DHT22;37652;50.400;30.628;2022-08-21T01:29:41;18.40;99.90
36214;DHT22;37652;50.400;30.628;2022-08-21T01:31:43;18.00;99.90
36214;DHT22;37652;50.400;30.628;2022-08-21T01:33:44;18.00;99.90
36214;DHT22;37652;50.400;30.628;2022-08-21T01:39:47;17.70;99.90
36214;DHT22;37652;50.400;30.628;2022-08-21T01:41:48;18.00;99.90
36214;DHT22;37652;50.400;30.628;2022-08-21T01:43:49;18.00;99.90
36214;DHT22;37652;50.400;30.628;2022-08-21T01:45:50;18.20;99.90
36214;DHT22;37652;50.400;30.628;2022-08-21T01:47:51;18.50;99.90
36214;DHT22;37652;50.400;30.628;2022-08-21T01:49:52;17.90;99.90
36214;DHT22;37652;50.400;30.628;2022-08-21T01:51:53;17.90;99.90
36214;DHT22;37652;50.400;30.628;2022-08-21T01:53:53;18.00;99.90
36214;DHT22;37652;50.400;30.628;2022-08-21T01:55:54;17.90;99.90
36214;DHT22;37652;50.400;30.628;2022-08-21T01:57:55;17.90;99.90
36214;DHT22;37652;50.400;30.628;2022-08-21T01:59:57;18.00;99.90
36214;DHT22;37652;50.400;30.628;2022-08-21T02:05:59;17.90;99.90
36214;DHT22;37652;50.400;30.628;2022-08-21T02:08:00;18.80;99.90
36214;DHT22;37652;50.400;30.628;2022-08-21T02:10:01;18.10;99.90
36214;DHT22;37652;50.400;30.628;2022-08-21T02:12:02;18.00;99.90
36214;DHT22;37652;50.400;30.628;2022-08-21T02:14:03;17.70;99.90
36214;DHT22;37652;50.400;30.628;2022-08-21T02:16:04;18.30;99.90
36214;DHT22;37652;50.400;30.628;2022-08-21T02:18:05;17.80;99.90
36214;DHT22;37652;50.400;30.628;2022-08-21T02:20:07;17.90;99.90
36214;DHT22;37652;50.400;30.628;2022-08-21T02:22:09;18.90;99.90
36214;DHT22;37652;50.400;30.628;2022-08-21T02:24:11;17.80;99.90
36214;DHT22;37652;50.400;30.628;2022-08-21T02:26:12;17.80;99.90
36214;DHT22;37652;50.400;30.628;2022-08-21T02:28:14;18.10;99.90
36214;DHT22;37652;50.400;30.628;2022-08-21T02:30:20;17.40;99.90
36214;DHT22;37652;50.400;30.628;2022-08-21T02:32:22;18.30;99.90
36214;DHT22;37652;50.400;30.628;2022-08-21T02:34:23;17.80;99.90
36214;DHT22;37652;50.400;30.628;2022-08-21T02:36:23;18.10;99.90
36214;DHT22;37652;50.400;30.628;2022-08-21T02:38:28;17.80;99.90
36214;DHT22;37652;50.400;30.628;2022-08-21T02:40:34;17.80;99.90
36214;DHT22;37652;50.400;30.628;2022-08-21T02:42:35;18.10;99.90
36214;DHT22;37652;50.400;30.628;2022-08-21T02:46:37;17.30;99.90
36214;DHT22;37652;50.400;30.628;2022-08-21T02:48:38;18.00;99.90
36214;DHT22;37652;50.400;30.628;2022-08-21T02:50:42;17.80;99.90
36214;DHT22;37652;50.400;30.628;2022-08-21T02:52:43;17.30;99.90
36214;DHT22;37652;50.400;30.628;2022-08-21T02:54:45;17.40;99.90
36214;DHT22;37652;50.400;30.628;2022-08-21T02:58:51;17.70;99.90
36214;DHT22;37652;50.400;30.628;2022-08-21T03:00:52;17.60;99.90
36214;DHT22;37652;50.400;30.628;2022-08-21T03:02:53;18.20;99.90
36214;DHT22;37652;50.400;30.628;2022-08-21T03:06:57;17.70;99.90
36214;DHT22;37652;50.400;30.628;2022-08-21T03:08:58;18.20;99.90
36214;DHT22;37652;50.400;30.628;2022-08-21T03:13:01;17.20;99.90
36214;DHT22;37652;50.400;30.628;2022-08-21T03:15:06;17.10;99.90
36214;DHT22;37652;50.400;30.628;2022-08-21T03:17:07;17.90;99.90
36214;DHT22;37652;50.400;30.628;2022-08-21T03:19:08;17.70;99.90
36214;DHT22;37652;50.400;30.628;2022-08-21T03:21:08;17.70;99.90
36214;DHT22;37652;50.400;30.628;2022-08-21T03:23:09;18.20;99.90
36214;DHT22;37652;50.400;30.628;2022-08-21T03:27:11;18.10;99.90
36214;DHT22;37652;50.400;30.628;2022-08-21T03:29:13;18.00;99.90
36214;DHT22;37652;50.400;30.628;2022-08-21T03:33:15;17.90;99.90
36214;DHT22;37652;50.400;30.628;2022-08-21T03:35:17;17.30;99.90
36214;DHT22;37652;50.400;30.628;2022-08-21T03:37:18;17.60;99.90
36214;DHT22;37652;50.400;30.628;2022-08-21T03:41:20;17.50;99.90
36214;DHT22;37652;50.400;30.628;2022-08-21T03:43:21;17.50;99.90
36214;DHT22;37652;50.400;30.628;2022-08-21T03:49:25;17.50;99.90
36214;DHT22;37652;50.400;30.628;2022-08-21T03:51:25;18.10;99.90
36214;DHT22;37652;50.400;30.628;2022-08-21T03:53:26;18.10;99.90
36214;DHT22;37652;50.400;30.628;2022-08-21T03:55:27;18.00;99.90
36214;DHT22;37652;50.400;30.628;2022-08-21T03:57:28;18.20;99.90
36214;DHT22;37652;50.400;30.628;2022-08-21T03:59:29;18.00;99.90
36214;DHT22;37652;50.400;30.628;2022-08-21T04:01:29;17.80;99.90
36214;DHT22;37652;50.400;30.628;2022-08-21T04:03:30;18.70;99.90
36214;DHT22;37652;50.400;30.628;2022-08-21T04:07:33;18.80;99.90
36214;DHT22;37652;50.400;30.628;2022-08-21T04:11:35;18.30;99.90
36214;DHT22;37652;50.400;30.628;2022-08-21T04:13:37;18.90;99.90
36214;DHT22;37652;50.400;30.628;2022-08-21T04:15:39;18.50;99.90
36214;DHT22;37652;50.400;30.628;2022-08-21T04:19:40;19.30;99.90
36214;DHT22;37652;50.400;30.628;2022-08-21T04:21:41;19.10;99.90
36214;DHT22;37652;50.400;30.628;2022-08-21T04:23:42;18.90;99.90
36214;DHT22;37652;50.400;30.628;2022-08-21T04:25:42;19.10;99.90
36214;DHT22;37652;50.400;30.628;2022-08-21T04:27:43;19.00;99.90
36214;DHT22;37652;50.400;30.628;2022-08-21T04:29:44;19.00;99.90
36214;DHT22;37652;50.400;30.628;2022-08-21T04:33:46;18.80;99.90
36214;DHT22;37652;50.400;30.628;2022-08-21T04:35:47;19.00;99.90
36214;DHT22;37652;50.400;30.628;2022-08-21T04:37:47;19.10;99.90
36214;DHT22;37652;50.400;30.628;2022-08-21T04:39:48;18.70;99.90
36214;DHT22;37652;50.400;30.628;2022-08-21T04:41:49;18.60;99.90
36214;DHT22;37652;50.400;30.628;2022-08-21T04:43:50;19.30;99.90
36214;DHT22;37652;50.400;30.628;2022-08-21T04:45:51;19.20;99.90
36214;DHT22;37652;50.400;30.628;2022-08-21T04:47:54;19.20;99.90
36214;DHT22;37652;50.400;30.628;2022-08-21T04:49:55;19.70;99.90
36214;DHT22;37652;50.400;30.628;2022-08-21T04:54:00;19.40;99.90
36214;DHT22;37652;50.400;30.628;2022-08-21T04:56:06;19.50;99.90
36214;DHT22;37652;50.400;30.628;2022-08-21T04:58:11;19.50;99.90
36214;DHT22;37652;50.400;30.628;2022-08-21T05:00:14;19.40;99.90
36214;DHT22;37652;50.400;30.628;2022-08-21T05:02:15;19.60;99.90
36214;DHT22;37652;50.400;30.628;2022-08-21T05:04:18;20.00;99.90
36214;DHT22;37652;50.400;30.628;2022-08-21T05:08:23;19.50;99.90
36214;DHT22;37652;50.400;30.628;2022-08-21T05:10:26;20.30;99.90
36214;DHT22;37652;50.400;30.628;2022-08-21T05:12:26;20.00;99.90
36214;DHT22;37652;50.400;30.628;2022-08-21T05:14:27;19.90;99.90
36214;DHT22;37652;50.400;30.628;2022-08-21T05:16:28;20.00;99.90
36214;DHT22;37652;50.400;30.628;2022-08-21T05:18:29;20.20;99.90
36214;DHT22;37652;50.400;30.628;2022-08-21T05:20:29;20.00;99.90
36214;DHT22;37652;50.400;30.628;2022-08-21T05:22:30;20.30;99.90
36214;DHT22;37652;50.400;30.628;2022-08-21T05:26:33;20.00;99.90
36214;DHT22;37652;50.400;30.628;2022-08-21T05:30:36;20.70;99.90
36214;DHT22;37652;50.400;30.628;2022-08-21T05:32:37;20.80;99.90
36214;DHT22;37652;50.400;30.628;2022-08-21T05:34:38;20.50;99.90
36214;DHT22;37652;50.400;30.628;2022-08-21T05:36:38;20.60;99.90
36214;DHT22;37652;50.400;30.628;2022-08-21T05:38:40;20.60;99.90
36214;DHT22;37652;50.400;30.628;2022-08-21T05:40:40;20.80;99.90
36214;DHT22;37652;50.400;30.628;2022-08-21T05:42:41;20.80;99.90
36214;DHT22;37652;50.400;30.628;2022-08-21T05:46:43;20.90;99.90
36214;DHT22;37652;50.400;30.628;2022-08-21T05:50:46;21.10;99.90
36214;DHT22;37652;50.400;30.628;2022-08-21T05:52:47;21.40;99.90
36214;DHT22;37652;50.400;30.628;2022-08-21T05:54:49;21.40;99.90
36214;DHT22;37652;50.400;30.628;2022-08-21T05:56:50;21.00;99.90
36214;DHT22;37652;50.400;30.628;2022-08-21T05:58:50;21.10;99.90
36214;DHT22;37652;50.400;30.628;2022-08-21T06:00:51;21.30;99.90
36214;DHT22;37652;50.400;30.628;2022-08-21T06:04:55;21.30;99.90
36214;DHT22;37652;50.400;30.628;2022-08-21T06:06:56;21.40;99.90
36214;DHT22;37652;50.400;30.628;2022-08-21T06:08:57;21.40;99.90
36214;DHT22;37652;50.400;30.628;2022-08-21T06:10:59;21.50;99.90
36214;DHT22;37652;50.400;30.628;2022-08-21T06:15:01;21.70;99.90
36214;DHT22;37652;50.400;30.628;2022-08-21T06:17:06;22.30;99.90
36214;DHT22;37652;50.400;30.628;2022-08-21T06:19:07;22.20;99.90
36214;DHT22;37652;50.400;30.628;2022-08-21T06:21:08;22.00;99.90
36214;DHT22;37652;50.400;30.628;2022-08-21T06:25:10;22.00;99.90
36214;DHT22;37652;50.400;30.628;2022-08-21T06:27:11;22.30;99.90
36214;DHT22;37652;50.400;30.628;2022-08-21T06:29:12;22.20;99.90
36214;DHT22;37652;50.400;30.628;2022-08-21T06:31:19;22.20;99.90
36214;DHT22;37652;50.400;30.628;2022-08-21T06:33:19;22.40;99.90
36214;DHT22;37652;50.400;30.628;2022-08-21T06:35:20;22.30;99.90
36214;DHT22;37652;50.400;30.628;2022-08-21T06:37:21;22.70;99.90
36214;DHT22;37652;50.400;30.628;2022-08-21T06:39:22;22.40;99.90
36214;DHT22;37652;50.400;30.628;2022-08-21T06:43:23;22.70;99.90
36214;DHT22;37652;50.400;30.628;2022-08-21T06:45:24;22.80;99.90
36214;DHT22;37652;50.400;30.628;2022-08-21T06:47:25;22.80;99.90
36214;DHT22;37652;50.400;30.628;2022-08-21T06:49:26;22.90;99.90
36214;DHT22;37652;50.400;30.628;2022-08-21T06:51:26;23.00;99.90
36214;DHT22;37652;50.400;30.628;2022-08-21T06:53:27;23.30;99.90
36214;DHT22;37652;50.400;30.628;2022-08-21T06:55:28;23.20;99.90
36214;DHT22;37652;50.400;30.628;2022-08-21T06:59:30;23.10;99.90
36214;DHT22;37652;50.400;30.628;2022-08-21T07:03:36;23.60;99.90
36214;DHT22;37652;50.400;30.628;2022-08-21T07:07:38;23.80;99.90
36214;DHT22;37652;50.400;30.628;2022-08-21T07:11:40;23.70;99.90
36214;DHT22;37652;50.400;30.628;2022-08-21T07:15:41;24.10;99.90
36214;DHT22;37652;50.400;30.628;2022-08-21T07:23:48;24.30;99.90
36214;DHT22;37652;50.400;30.628;2022-08-21T07:29:50;24.80;99.90
36214;DHT22;37652;50.400;30.628;2022-08-21T07:33:53;24.90;99.90
36214;DHT22;37652;50.400;30.628;2022-08-21T07:35:54;25.10;99.90
36214;DHT22;37652;50.400;30.628;2022-08-21T07:37:55;25.30;99.90
36214;DHT22;37652;50.400;30.628;2022-08-21T07:39:56;25.20;99.90
36214;DHT22;37652;50.400;30.628;2022-08-21T07:41:56;25.10;99.90
36214;DHT22;37652;50.400;30.628;2022-08-21T07:43:58;25.30;99.90
36214;DHT22;37652;50.400;30.628;2022-08-21T07:45:59;24.90;99.90
36214;DHT22;37652;50.400;30.628;2022-08-21T07:50:00;25.90;99.90
36214;DHT22;37652;50.400;30.628;2022-08-21T07:52:01;26.30;99.90
36214;DHT22;37652;50.400;30.628;2022-08-21T07:56:05;25.80;99.90
36214;DHT22;37652;50.400;30.628;2022-08-21T07:58:06;26.00;99.90
36214;DHT22;37652;50.400;30.628;2022-08-21T08:00:11;25.80;99.90
36214;DHT22;37652;50.400;30.628;2022-08-21T08:02:25;25.90;99.90
36214;DHT22;37652;50.400;30.628;2022-08-21T08:10:30;25.90;99.90
36214;DHT22;37652;50.400;30.628;2022-08-21T08:14:31;26.30;99.90
36214;DHT22;37652;50.400;30.628;2022-08-21T08:16:32;26.40;99.90
36214;DHT22;37652;50.400;30.628;2022-08-21T08:22:36;26.60;99.90
36214;DHT22;37652;50.400;30.628;2022-08-21T08:26:41;27.40;99.90
36214;DHT22;37652;50.400;30.628;2022-08-21T08:28:42;27.60;99.90
36214;DHT22;37652;50.400;30.628;2022-08-21T08:30:45;27.60;99.90
36214;DHT22;37652;50.400;30.628;2022-08-21T08:32:47;27.40;99.90
36214;DHT22;37652;50.400;30.628;2022-08-21T08:34:48;27.00;99.90
36214;DHT22;37652;50.400;30.628;2022-08-21T08:36:49;27.20;99.90
36214;DHT22;37652;50.400;30.628;2022-08-21T08:41:19;27.40;99.90
36214;DHT22;37652;50.400;30.628;2022-08-21T08:47:27;28.40;99.90
36214;DHT22;37652;50.400;30.628;2022-08-21T08:51:57;27.10;99.90
36214;DHT22;37652;50.400;30.628;2022-08-21T08:54:03;28.00;99.90
36214;DHT22;37652;50.400;30.628;2022-08-21T08:58:16;27.90;99.90
36214;DHT22;37652;50.400;30.628;2022-08-21T09:00:20;29.00;98.90
36214;DHT22;37652;50.400;30.628;2022-08-21T09:04:28;30.00;97.90
36214;DHT22;37652;50.400;30.628;2022-08-21T09:06:55;30.50;97.10
36214;DHT22;37652;50.400;30.628;2022-08-21T09:11:45;33.60;93.20
36214;DHT22;37652;50.400;30.628;2022-08-21T09:21:15;31.10;88.10
36214;DHT22;37652;50.400;30.628;2022-08-21T09:26:07;32.50;89.00
36214;DHT22;37652;50.400;30.628;2022-08-21T09:30:15;34.80;84.80
36214;DHT22;37652;50.400;30.628;2022-08-21T09:32:22;35.10;82.10
36214;DHT22;37652;50.400;30.628;2022-08-21T09:34:30;35.70;80.00
36214;DHT22;37652;50.400;30.628;2022-08-21T09:36:40;36.70;77.30
36214;DHT22;37652;50.400;30.628;2022-08-21T09:38:51;33.90;76.50
36214;DHT22;37652;50.400;30.628;2022-08-21T09:40:58;34.20;77.80
36214;DHT22;37652;50.400;30.628;2022-08-21T09:43:02;35.40;76.90
36214;DHT22;37652;50.400;30.628;2022-08-21T09:45:12;36.00;75.00
36214;DHT22;37652;50.400;30.628;2022-08-21T09:47:18;37.00;73.00
36214;DHT22;37652;50.400;30.628;2022-08-21T09:49:34;38.70;71.80
36214;DHT22;37652;50.400;30.628;2022-08-21T09:51:36;37.60;72.80
36214;DHT22;37652;50.400;30.628;2022-08-21T09:53:42;37.30;68.50
36214;DHT22;37652;50.400;30.628;2022-08-21T09:56:20;37.10;68.90
36214;DHT22;37652;50.400;30.628;2022-08-21T09:58:44;38.40;67.70
36214;DHT22;37652;50.400;30.628;2022-08-21T10:00:56;36.90;66.90
36214;DHT22;37652;50.400;30.628;2022-08-21T10:03:13;34.00;69.00
36214;DHT22;37652;50.400;30.628;2022-08-21T10:05:33;34.70;70.60
36214;DHT22;37652;50.400;30.628;2022-08-21T10:07:37;33.00;72.10
36214;DHT22;37652;50.400;30.628;2022-08-21T10:09:38;33.30;71.80
36214;DHT22;37652;50.400;30.628;2022-08-21T10:11:40;33.90;71.20
36214;DHT22;37652;50.400;30.628;2022-08-21T10:18:27;34.60;70.50
36214;DHT22;37652;50.400;30.628;2022-08-21T10:25:47;34.50;81.30
36214;DHT22;37652;50.400;30.628;2022-08-21T10:30:55;34.90;69.50
36214;DHT22;37652;50.400;30.628;2022-08-21T10:48:58;34.20;69.60
36214;DHT22;37652;50.400;30.628;2022-08-21T10:51:09;35.10;69.00
36214;DHT22;37652;50.400;30.628;2022-08-21T10:55:32;36.10;68.90
36214;DHT22;37652;50.400;30.628;2022-08-21T10:57:50;35.60;68.20
36214;DHT22;37652;50.400;30.628;2022-08-21T11:00:05;34.30;68.80
36214;DHT22;37652;50.400;30.628;2022-08-21T11:05:09;33.80;68.90
36214;DHT22;37652;50.400;30.628;2022-08-21T11:06:49;34.80;68.20
36214;DHT22;37652;50.400;30.628;2022-08-21T11:09:01;34.50;68.20
36214;DHT22;37652;50.400;30.628;2022-08-21T11:13:49;34.60;67.40
36214;DHT22;37652;50.400;30.628;2022-08-21T11:15:58;35.90;67.60
36214;DHT22;37652;50.400;30.628;2022-08-21T11:18:38;35.40;67.80
36214;DHT22;37652;50.400;30.628;2022-08-21T11:20:54;34.30;68.60
36214;DHT22;37652;50.400;30.628;2022-08-21T11:23:03;33.50;69.30
36214;DHT22;37652;50.400;30.628;2022-08-21T11:29:28;33.80;70.30
36214;DHT22;37652;50.400;30.628;2022-08-21T11:34:05;34.80;68.30
36214;DHT22;37652;50.400;30.628;2022-08-21T11:36:42;35.10;67.80
36214;DHT22;37652;50.400;30.628;2022-08-21T11:48:26;35.40;68.40
36214;DHT22;37652;50.400;30.628;2022-08-21T11:50:24;34.40;68.90
36214;DHT22;37652;50.400;30.628;2022-08-21T11:57:56;35.20;68.10
36214;DHT22;37652;50.400;30.628;2022-08-21T12:00:05;34.60;68.10
36214;DHT22;37652;50.400;30.628;2022-08-21T12:02:13;34.70;67.90
36214;DHT22;37652;50.400;30.628;2022-08-21T12:04:30;35.10;67.20
36214;DHT22;37652;50.400;30.628;2022-08-21T12:06:41;35.40;67.50
36214;DHT22;37652;50.400;30.628;2022-08-21T12:08:45;35.40;67.50
36214;DHT22;37652;50.400;30.628;2022-08-21T12:10:58;35.20;68.10
36214;DHT22;37652;50.400;30.628;2022-08-21T12:13:26;34.60;68.00
36214;DHT22;37652;50.400;30.628;2022-08-21T12:15:28;33.00;69.80
36214;DHT22;37652;50.400;30.628;2022-08-21T12:17:39;33.00;70.40
36214;DHT22;37652;50.400;30.628;2022-08-21T12:24:28;34.50;68.50
36214;DHT22;37652;50.400;30.628;2022-08-21T12:26:35;35.10;68.30
36214;DHT22;37652;50.400;30.628;2022-08-21T12:28:48;34.20;68.60
36214;DHT22;37652;50.400;30.628;2022-08-21T12:30:49;34.30;69.10
36214;DHT22;37652;50.400;30.628;2022-08-21T12:33:02;34.50;69.00
36214;DHT22;37652;50.400;30.628;2022-08-21T12:35:14;33.70;69.30
36214;DHT22;37652;50.400;30.628;2022-08-21T12:39:49;33.90;70.10
36214;DHT22;37652;50.400;30.628;2022-08-21T12:42:17;33.80;69.00
36214;DHT22;37652;50.400;30.628;2022-08-21T12:44:22;34.60;68.80
36214;DHT22;37652;50.400;30.628;2022-08-21T12:46:42;34.90;68.50
36214;DHT22;37652;50.400;30.628;2022-08-21T12:49:06;35.60;69.10
36214;DHT22;37652;50.400;30.628;2022-08-21T12:51:13;35.00;68.20
36214;DHT22;37652;50.400;30.628;2022-08-21T12:55:31;34.60;68.50
36214;DHT22;37652;50.400;30.628;2022-08-21T12:57:36;35.50;68.00
36214;DHT22;37652;50.400;30.628;2022-08-21T12:59:39;35.60;67.60
36214;DHT22;37652;50.400;30.628;2022-08-21T13:01:50;35.10;68.50
36214;DHT22;37652;50.400;30.628;2022-08-21T13:03:54;33.90;68.90
36214;DHT22;37652;50.400;30.628;2022-08-21T13:05:56;34.30;70.20
36214;DHT22;37652;50.400;30.628;2022-08-21T13:07:58;33.30;70.70
36214;DHT22;37652;50.400;30.628;2022-08-21T13:10:09;32.60;70.10
36214;DHT22;37652;50.400;30.628;2022-08-21T13:12:16;32.60;73.10
36214;DHT22;37652;50.400;30.628;2022-08-21T13:14:40;33.20;71.20
36214;DHT22;37652;50.400;30.628;2022-08-21T13:16:41;33.80;73.90
36214;DHT22;37652;50.400;30.628;2022-08-21T13:18:57;34.30;71.20
36214;DHT22;37652;50.400;30.628;2022-08-21T13:21:28;34.30;69.60
36214;DHT22;37652;50.400;30.628;2022-08-21T13:23:30;34.70;69.10
36214;DHT22;37652;50.400;30.628;2022-08-21T13:25:36;34.30;69.20
36214;DHT22;37652;50.400;30.628;2022-08-21T13:29:38;33.70;71.70
36214;DHT22;37652;50.400;30.628;2022-08-21T13:31:40;34.30;70.30
36214;DHT22;37652;50.400;30.628;2022-08-21T13:33:43;34.80;72.40
36214;DHT22;37652;50.400;30.628;2022-08-21T13:37:56;34.40;72.30
36214;DHT22;37652;50.400;30.628;2022-08-21T13:39:57;33.60;71.00
36214;DHT22;37652;50.400;30.628;2022-08-21T13:42:00;34.10;69.60
36214;DHT22;37652;50.400;30.628;2022-08-21T13:44:05;34.60;71.80
36214;DHT22;37652;50.400;30.628;2022-08-21T13:46:11;34.90;75.70
36214;DHT22;37652;50.400;30.628;2022-08-21T13:50:16;34.40;72.50
36214;DHT22;37652;50.400;30.628;2022-08-21T13:52:23;33.70;69.80
36214;DHT22;37652;50.400;30.628;2022-08-21T13:56:41;32.90;75.90
36214;DHT22;37652;50.400;30.628;2022-08-21T13:58:45;33.10;70.70
36214;DHT22;37652;50.400;30.628;2022-08-21T14:00:49;33.10;70.40
36214;DHT22;37652;50.400;30.628;2022-08-21T14:02:51;33.50;70.80
36214;DHT22;37652;50.400;30.628;2022-08-21T14:05:03;33.40;70.80
36214;DHT22;37652;50.400;30.628;2022-08-21T14:07:26;32.90;70.70
36214;DHT22;37652;50.400;30.628;2022-08-21T14:09:39;33.00;71.50
36214;DHT22;37652;50.400;30.628;2022-08-21T14:14:29;33.20;71.00
36214;DHT22;37652;50.400;30.628;2022-08-21T14:16:44;33.10;71.30
36214;DHT22;37652;50.400;30.628;2022-08-21T14:18:49;33.10;71.70
36214;DHT22;37652;50.400;30.628;2022-08-21T14:22:52;32.80;79.30
36214;DHT22;37652;50.400;30.628;2022-08-21T14:25:00;31.80;77.00
36214;DHT22;37652;50.400;30.628;2022-08-21T14:27:04;31.60;73.00
36214;DHT22;37652;50.400;30.628;2022-08-21T14:29:08;31.30;73.60
36214;DHT22;37652;50.400;30.628;2022-08-21T14:31:20;31.10;81.80
36214;DHT22;37652;50.400;30.628;2022-08-21T14:33:30;31.60;82.80
36214;DHT22;37652;50.400;30.628;2022-08-21T14:51:45;28.50;86.50
36214;DHT22;37652;50.400;30.628;2022-08-21T14:53:47;28.30;78.50
36214;DHT22;37652;50.400;30.628;2022-08-21T14:58:08;28.70;88.30
36214;DHT22;37652;50.400;30.628;2022-08-21T15:00:11;28.30;79.30
36214;DHT22;37652;50.400;30.628;2022-08-21T15:02:12;28.30;89.70
36214;DHT22;37652;50.400;30.628;2022-08-21T15:04:14;28.40;87.30
36214;DHT22;37652;50.400;30.628;2022-08-21T15:06:16;28.00;79.20
36214;DHT22;37652;50.400;30.628;2022-08-21T15:10:23;27.90;79.90
36214;DHT22;37652;50.400;30.628;2022-08-21T15:12:24;27.90;80.20
36214;DHT22;37652;50.400;30.628;2022-08-21T15:14:27;27.90;80.50
36214;DHT22;37652;50.400;30.628;2022-08-21T15:16:29;27.80;80.30
36214;DHT22;37652;50.400;30.628;2022-08-21T15:20:33;27.60;80.80
36214;DHT22;37652;50.400;30.628;2022-08-21T15:30:40;27.30;82.20
36214;DHT22;37652;50.400;30.628;2022-08-21T15:42:46;26.90;90.50
36214;DHT22;37652;50.400;30.628;2022-08-21T15:44:48;27.50;90.60
36214;DHT22;37652;50.400;30.628;2022-08-21T15:46:48;26.90;90.80
36214;DHT22;37652;50.400;30.628;2022-08-21T15:52:52;26.90;83.20
36214;DHT22;37652;50.400;30.628;2022-08-21T15:59:01;26.80;83.90
36214;DHT22;37652;50.400;30.628;2022-08-21T16:03:05;26.80;84.30
36214;DHT22;37652;50.400;30.628;2022-08-21T16:07:11;26.90;91.90
36214;DHT22;37652;50.400;30.628;2022-08-21T16:11:14;26.30;87.20
36214;DHT22;37652;50.400;30.628;2022-08-21T16:13:20;26.40;85.20
36214;DHT22;37652;50.400;30.628;2022-08-21T16:15:23;26.40;92.20
36214;DHT22;37652;50.400;30.628;2022-08-21T16:17:33;25.50;85.00
36214;DHT22;37652;50.400;30.628;2022-08-21T16:19:35;26.30;85.90
36214;DHT22;37652;50.400;30.628;2022-08-21T16:23:38;26.30;86.30
36214;DHT22;37652;50.400;30.628;2022-08-21T16:25:40;25.90;92.90
36214;DHT22;37652;50.400;30.628;2022-08-21T16:27:43;26.00;87.10
36214;DHT22;37652;50.400;30.628;2022-08-21T16:29:45;25.80;88.00
36214;DHT22;37652;50.400;30.628;2022-08-21T16:33:51;25.70;88.80
36214;DHT22;37652;50.400;30.628;2022-08-21T16:37:54;25.60;90.90
36214;DHT22;37652;50.400;30.628;2022-08-21T16:50:04;25.10;90.80
36214;DHT22;37652;50.400;30.628;2022-08-21T16:56:11;23.90;92.50
36214;DHT22;37652;50.400;30.628;2022-08-21T16:58:40;24.00;93.10
36214;DHT22;37652;50.400;30.628;2022-08-21T17:02:52;23.60;98.20
36214;DHT22;37652;50.400;30.628;2022-08-21T17:04:54;23.90;94.80
36214;DHT22;37652;50.400;30.628;2022-08-21T17:06:56;24.10;93.70
36214;DHT22;37652;50.400;30.628;2022-08-21T17:08:57;24.30;98.00
36214;DHT22;37652;50.400;30.628;2022-08-21T17:10:59;24.30;93.90
36214;DHT22;37652;50.400;30.628;2022-08-21T17:15:33;24.30;98.40
36214;DHT22;37652;50.400;30.628;2022-08-21T17:17:33;24.10;94.60
36214;DHT22;37652;50.400;30.628;2022-08-21T17:19:34;24.10;99.10
36214;DHT22;37652;50.400;30.628;2022-08-21T17:21:34;24.00;95.10
36214;DHT22;37652;50.400;30.628;2022-08-21T17:25:37;24.00;95.30
36214;DHT22;37652;50.400;30.628;2022-08-21T17:27:40;23.90;96.10
36214;DHT22;37652;50.400;30.628;2022-08-21T17:29:43;24.00;99.90
36214;DHT22;37652;50.400;30.628;2022-08-21T17:31:44;23.80;96.30
36214;DHT22;37652;50.400;30.628;2022-08-21T17:33:47;23.80;96.50
36214;DHT22;37652;50.400;30.628;2022-08-21T17:37:50;23.80;96.90
36214;DHT22;37652;50.400;30.628;2022-08-21T17:41:53;23.80;97.20
36214;DHT22;37652;50.400;30.628;2022-08-21T17:47:57;23.60;98.50
36214;DHT22;37652;50.400;30.628;2022-08-21T17:56:00;23.00;99.90
36214;DHT22;37652;50.400;30.628;2022-08-21T17:58:02;22.50;99.90
36214;DHT22;37652;50.400;30.628;2022-08-21T18:00:06;22.70;99.90
36214;DHT22;37652;50.400;30.628;2022-08-21T18:02:09;22.80;99.90
36214;DHT22;37652;50.400;30.628;2022-08-21T18:04:10;22.80;99.90